Flight Track Log - Related Links

Times and Time Zones

All times are in EDT time to prevent confusion due to time zone crossing. See the N72WP flight status page for this flight to view local times or setup timezone preferences in your user account.

Time Position Orientation Groundspeed Altitude Reporting Facility
EDT Latitude Longitude Course Direction KTS MPH feet Rate Location/Type
Tue 07:37:05 PM 39.9228 -88.1931 142° Southeast 129 148 11,000  Level Indianapolis Center
Tue 07:38:07 PM 39.8914 -88.1719 153° Southeast 134 154 11,000 -2,634 Level Indianapolis Center
Tue 07:39:00 PM 40.0271 -88.2703 154° Southeast  Level FlightAware Approximate
Tue 07:39:08 PM 39.8578 -88.1511 155° Southeast 133 153 5,600  Level Indianapolis Center
Tue 07:40:00 PM 39.9831 -88.2423 154° Southeast  Level FlightAware Approximate
Tue 07:40:10 PM 39.8247 -88.1239 148° Southeast 134 154 6,700  Level Indianapolis Center
Tue 07:41:00 PM 39.9391 -88.2142 154° Southeast  Level FlightAware Approximate
Tue 07:41:12 PM 39.7906 -88.1014 153° Southeast 137 158 7,600  Level Indianapolis Center
Tue 07:42:00 PM 39.8960 -88.1838 142° Southeast  Level Estimated
Tue 07:42:13 PM 39.7558 -88.0789 154° Southeast 139 160 8,500  Level Indianapolis Center
Tue 07:43:15 PM 39.7208 -88.0564 154° Southeast 140 161 9,300 823 Climbing Indianapolis Center
Tue 07:44:17 PM 39.6872 -88.0342 153° Southeast 138 159 10,200 829 Climbing Indianapolis Center
Tue 07:45:18 PM 39.6469 -88.0061 152° Southeast 138 159 11,000 390 Climbing Indianapolis Center
Tue 07:46:20 PM 39.6069 -87.9792 153° Southeast 155 178 11,000  Level Indianapolis Center
Tue 07:47:22 PM 39.5631 -87.9519 154° Southeast 171 197 11,000  Level Indianapolis Center
Tue 07:48:24 PM 39.5175 -87.9231 154° Southeast 180 207 11,000  Level Indianapolis Center
Tue 07:49:25 PM 39.4683 -87.9031 163° South 184 212 11,000  Level Indianapolis Center
Tue 07:50:27 PM 39.4186 -87.8850 164° South 185 213 11,000  Level Indianapolis Center
Tue 07:51:29 PM 39.3622 -87.8625 163° South 185 213 11,000  Level Indianapolis Center
Tue 07:52:30 PM 39.3097 -87.8442 165° South 191 220 11,000  Level Indianapolis Center
Tue 07:53:32 PM 39.2567 -87.8261 165° South 195 224 11,000  Level Indianapolis Center
Tue 07:54:34 PM 39.2058 -87.8092 166° South 191 220 11,000 49 Level Indianapolis Center
Tue 07:55:35 PM 39.1536 -87.7919 166° South 192 221 11,100 537 Climbing Indianapolis Center
Tue 07:56:37 PM 39.1100 -87.7769 165° South 171 197 12,100 871 Climbing Indianapolis Center
Tue 07:57:39 PM 39.0628 -87.7597 164° South 152 175 12,900 439 Climbing Indianapolis Center
Tue 07:58:40 PM 39.0153 -87.7447 166° South 161 185 13,000 49 Climbing Indianapolis Center
Tue 07:59:42 PM 38.9644 -87.7228 161° South 183 211 13,000  Level Indianapolis Center
Tue 08:00:44 PM 38.9192 -87.6919 152° Southeast 184 212 13,000 585 Level Indianapolis Center
Tue 08:01:45 PM 38.8772 -87.6614 150° Southeast 174 200 14,200 976 Climbing Indianapolis Center
Tue 08:02:47 PM 38.8419 -87.6389 154° Southeast 145 167 15,000 390 Climbing Indianapolis Center
Tue 08:03:48 PM 38.8014 -87.6100 151° Southeast 164 189 15,000  Level Indianapolis Center
Tue 08:04:51 PM 38.7558 -87.5778 151° Southeast 182 209 15,000  Level Indianapolis Center
Tue 08:05:52 PM 38.7086 -87.5464 153° Southeast 190 219 15,000  Level Indianapolis Center
Tue 08:06:53 PM 38.6542 -87.5089 152° Southeast 184 212 15,000  Level Indianapolis Center
Tue 08:07:55 PM 38.6064 -87.4783 153° Southeast 191 220 15,000  Level Indianapolis Center
Tue 08:08:56 PM 38.5581 -87.4458 152° Southeast 195 224 15,000  Level Indianapolis Center
Tue 08:09:58 PM 38.5106 -87.4136 152° Southeast 192 221 15,000  Level Indianapolis Center
Tue 08:11:00 PM 38.4628 -87.3822 153° Southeast 193 222 15,000  Level Indianapolis Center
Tue 08:12:01 PM 38.4150 -87.3494 152° Southeast 193 222 15,000  Level Indianapolis Center
Tue 08:13:03 PM 38.3667 -87.3167 152° Southeast 195 224 15,000  Level Indianapolis Center
Tue 08:14:05 PM 38.3194 -87.2864 153° Southeast 192 221 15,000  Level Indianapolis Center
Tue 08:15:06 PM 38.2619 -87.2481 152° Southeast 193 222 15,000  Level Indianapolis Center
Tue 08:16:08 PM 38.2144 -87.2150 151° Southeast 195 224 15,000  Level Indianapolis Center
Tue 08:17:09 PM 38.1664 -87.1833 153° Southeast 195 224 15,000  Level Indianapolis Center
Tue 08:18:11 PM 38.1178 -87.1519 153° Southeast 196 226 15,000  Level Indianapolis Center
Tue 08:19:13 PM 38.0694 -87.1194 152° Southeast 197 227 15,000  Level Indianapolis Center
Tue 08:20:15 PM 38.0222 -87.0875 152° Southeast 194 223 15,000  Level Indianapolis Center
Tue 08:21:16 PM 37.9742 -87.0553 152° Southeast 196 226 15,000  Level Indianapolis Center
Tue 08:22:18 PM 37.9158 -87.0169 153° Southeast 195 224 15,000  Level Indianapolis Center
Tue 08:23:20 PM 37.8672 -86.9844 152° Southeast 197 227 15,000  Level Indianapolis Center
Tue 08:24:22 PM 37.8183 -86.9531 153° Southeast 197 227 15,000  Level Indianapolis Center
Tue 08:25:23 PM 37.7689 -86.9206 153° Southeast 199 229 15,000  Level Indianapolis Center
Tue 08:26:25 PM 37.7194 -86.8878 152° Southeast 200 230 15,000  Level Indianapolis Center
Tue 08:27:27 PM 37.6700 -86.8572 154° Southeast 198 228 15,000  Level Indianapolis Center
Tue 08:28:29 PM 37.6208 -86.8258 153° Southeast 197 227 15,000  Level Indianapolis Center
Tue 08:29:31 PM 37.5722 -86.7931 152° Southeast 198 228 15,000  Level Indianapolis Center
Tue 08:30:32 PM 37.5136 -86.7547 153° Southeast 198 228 15,000 -49 Level Indianapolis Center
Tue 08:31:34 PM 37.4639 -86.7225 153° Southeast 198 228 14,900 -48 Descending Indianapolis Center
Tue 08:32:36 PM 37.4153 -86.6906 152° Southeast 197 227 14,900 48 Level Indianapolis Center
Tue 08:33:38 PM 37.3672 -86.6586 152° Southeast 195 224 15,000 49 Climbing Indianapolis Center
Tue 08:34:39 PM 37.3181 -86.6281 154° Southeast 196 226 15,000  Level Indianapolis Center
Tue 08:35:41 PM 37.2694 -86.5961 152° Southeast 195 224 15,000  Level Indianapolis Center
Tue 08:36:43 PM 37.2208 -86.5647 153° Southeast 195 224 15,000  Level Indianapolis Center
Tue 08:37:44 PM 37.1728 -86.5350 154° Southeast 193 222 15,000 -50 Level Indianapolis Center
Tue 08:38:44 PM 37.1242 -86.5039 153° Southeast 197 227 14,900 -50 Descending Memphis Center
Tue 08:39:44 PM 37.0772 -86.4725 152° Southeast 197 227 14,900 50 Level Memphis Center
Tue 08:40:44 PM 37.0283 -86.4411 153° Southeast 197 227 15,000  Climbing Memphis Center
Tue 08:41:44 PM 36.9753 -86.4072 153° Southeast 202 232 14,900  Descending Memphis Center
Tue 08:42:44 PM 36.9264 -86.3758 153° Southeast 202 232 15,000  Climbing Memphis Center
Tue 08:43:44 PM 36.8772 -86.3447 153° Southeast 202 232 14,900  Descending Memphis Center
Tue 08:44:44 PM 36.8283 -86.3133 153° Southeast 202 232 15,000  Climbing Memphis Center
Tue 08:45:44 PM 36.7794 -86.2822 153° Southeast 197 227 14,900 -50 Descending Memphis Center
Tue 08:46:44 PM 36.7306 -86.2511 153° Southeast 197 227 14,900  Level Memphis Center
Tue 08:47:44 PM 36.6794 -86.2200 154° Southeast 213 245 14,900 50 Level Memphis Center
Tue 08:48:44 PM 36.6303 -86.1864 151° Southeast 202 232 15,000 50 Climbing Memphis Center
Tue 08:49:44 PM 36.5858 -86.1603 155° Southeast 202 232 15,000 -50 Level Memphis Center
Tue 08:50:44 PM 36.5389 -86.1292 152° Southeast 202 232 14,900 -350 Descending Memphis Center
Tue 08:51:44 PM 36.4878 -86.0956 152° Southeast 202 232 14,300 -600 Descending Memphis Center
Tue 08:52:44 PM 36.4386 -86.0647 153° Southeast 202 232 13,700 -600 Descending Memphis Center
Tue 08:53:44 PM 36.3878 -86.0364 156° South 202 232 13,100 -550 Descending Memphis Center
Tue 08:54:44 PM 36.3342 -86.0006 152° Southeast 202 232 12,600 -600 Descending Memphis Center
Tue 08:55:44 PM 36.2831 -85.9700 154° Southeast 202 232 11,900 -600 Descending Memphis Center
Tue 08:56:44 PM 36.2383 -85.9414 153° Southeast 197 227 11,400 -450 Descending Memphis Center
Tue 08:57:44 PM 36.1914 -85.9131 154° Southeast 197 227 11,000 -200 Descending Memphis Center
Tue 08:58:44 PM 36.1467 -85.8847 153° Southeast 192 221 11,000  Level Memphis Center
Tue 08:59:44 PM 36.0997 -85.8539 152° Southeast 192 221 11,000 50 Level Memphis Center
Tue 09:00:44 PM 36.0550 -85.8256 153° Southeast 192 221 11,100 50 Climbing Memphis Center
Tue 09:01:44 PM 36.0058 -85.7950 153° Southeast 197 227 11,100  Level Memphis Center
Tue 09:02:44 PM 35.9569 -85.7669 155° Southeast 197 227 11,100  Level Memphis Center
Tue 09:03:44 PM 35.9097 -85.7361 152° Southeast 197 227 11,100  Level Memphis Center
Tue 09:04:44 PM 35.8628 -85.7081 154° Southeast 197 227 11,100  Level Memphis Center
Tue 09:05:44 PM 35.8158 -85.6775 152° Southeast 197 227 11,100  Level Memphis Center
Tue 09:06:44 PM 35.7667 -85.6469 153° Southeast 197 227 11,100  Level Memphis Center
Tue 09:07:44 PM 35.7197 -85.6164 152° Southeast 197 227 11,100  Level Memphis Center
Tue 09:08:44 PM 35.6686 -85.5861 154° Southeast 197 227 11,100  Level Memphis Center
Tue 09:09:44 PM 35.6214 -85.5556 152° Southeast 197 227 11,100 -50 Level Memphis Center
Tue 09:10:44 PM 35.5744 -85.5253 152° Southeast 197 227 11,000  Descending Memphis Center
Tue 09:12:21 PM 35.4950 -85.4825 156° South 195 224 11,100  Climbing Atlanta Center
Tue 09:13:21 PM 35.4494 -85.4536 153° Southeast 195 224 11,000 -50 Descending Atlanta Center
Tue 09:14:21 PM 35.3997 -85.4222 153° Southeast 195 224 11,000  Level Atlanta Center
Tue 09:15:21 PM 35.3519 -85.3933 154° Southeast 195 224 11,000  Level Atlanta Center
Tue 09:16:21 PM 35.3044 -85.3622 152° Southeast 195 224 11,000  Level Atlanta Center
Tue 09:17:21 PM 35.2544 -85.3333 155° Southeast 195 224 11,000  Level Atlanta Center
Tue 09:18:21 PM 35.2047 -85.3019 153° Southeast 195 224 11,000  Level Atlanta Center
Tue 09:19:21 PM 35.1572 -85.2733 154° Southeast 195 224 11,000  Level Atlanta Center
Tue 09:20:21 PM 35.1094 -85.2447 154° Southeast 195 224 11,000  Level Atlanta Center
Tue 09:21:21 PM 35.0597 -85.2136 153° Southeast 195 224 11,000  Level Atlanta Center
Tue 09:22:21 PM 35.0119 -85.1875 156° South 195 224 11,000  Level Atlanta Center
Tue 09:23:21 PM 34.9578 -85.1667 163° South 195 224 11,000  Level Atlanta Center
Tue 09:24:21 PM 34.9058 -85.1481 164° South 195 224 11,000  Level Atlanta Center
Tue 09:25:21 PM 34.8539 -85.1272 162° South 195 224 11,000  Level Atlanta Center
Tue 09:26:21 PM 34.8019 -85.1036 160° South 195 224 11,000  Level Atlanta Center
Tue 09:27:21 PM 34.7500 -85.0828 162° South 195 224 11,000  Level Atlanta Center
Tue 09:28:21 PM 34.6958 -85.0644 164° South 200 230 11,000  Level Atlanta Center
Tue 09:29:21 PM 34.6439 -85.0411 160° South 205 236 11,000  Level Atlanta Center
Tue 09:30:21 PM 34.5917 -85.0228 164° South 205 236 11,000  Level Atlanta Center
Tue 09:31:21 PM 34.5397 -84.9994 160° South 205 236 11,000  Level Atlanta Center
Tue 09:32:21 PM 34.4817 -84.9761 162° South 205 236 11,000 -250 Level Atlanta Center
Tue 09:33:21 PM 34.4275 -84.9531 161° South 205 236 10,500 -650 Descending Atlanta Center
Tue 09:34:21 PM 34.3733 -84.9347 164° South 205 236 9,700 -900 Descending Atlanta Center
Tue 09:35:21 PM 34.3233 -84.9117 159° South 205 236 8,700 -800 Descending Atlanta Center
Tue 09:36:21 PM 34.2756 -84.8961 165° South 193 222 8,100 -650 Descending Atlanta Center
Tue 09:37:21 PM 34.2256 -84.8756 161° South 183 211 7,400 -650 Descending Atlanta Center
Tue 09:38:21 PM 34.1842 -84.8397 144° Southeast 183 211 6,800 -750 Descending Atlanta Center
Tue 09:39:21 PM 34.1719 -84.7869 106° East 156 180 5,900 -750 Descending Atlanta Center
Tue 09:40:21 PM 34.1700 -84.7292 92° East 156 180 5,300 -500 Descending Atlanta Center
Tue 09:41:21 PM 34.1600 -84.6789 104° East 168 193 4,900 -200 Descending Atlanta Center
Tue 09:42:21 PM 34.1478 -84.6186 104° East 173 199 4,900 -260 Level Atlanta Center
Tue 09:44:49 PM 34.1167 -84.4667 104° East 180 207 4,000 -404 Descending Atlanta TRACON
Tue 09:45:49 PM 34.1000 -84.4000 107° East 182 209 3,500 -455 Descending Atlanta TRACON
Tue 09:47:01 PM 34.0833 -84.3333 107° East 186 214 3,000 -238 Descending Atlanta TRACON
Tue 09:47:55 PM 34.1000 -84.2833 68° East 157 181 3,000  Level Atlanta TRACON
Tue 09:48:55 PM 34.1000 -84.2333 90° East 163 188 3,000  Level Atlanta TRACON
Tue 09:49:49 PM 34.1000 -84.1833 90° East 159 183 3,000  Level Atlanta TRACON
Tue 09:50:49 PM 34.1000 -84.1333 90° East 159 183 3,000  Level Atlanta TRACON
Tue 09:51:49 PM 34.0500 -84.1167 165° South 157 181 3,000  Level Atlanta TRACON
Tue 09:52:43 PM 34.0333 -84.1500 239° Southwest 120 138 3,000  Level Atlanta TRACON
Tue 09:53:43 PM 34.0333 -84.1833 270° West 123 142 3,000  Level Atlanta TRACON
Tue 09:54:43 PM 34.0167 -84.2167 239° Southwest 127 146 3,000  Level Atlanta TRACON
Tue 09:55:43 PM 33.9833 -84.2500 220° Southwest 137 158 3,000 -150 Level Atlanta TRACON
Tue 09:56:43 PM 33.9500 -84.2667 203° Southwest 119 137 2,700 -400 Descending Atlanta TRACON
Tue 09:57:43 PM 33.9333 -84.2833 220° Southwest 97 112 2,200 -500 Descending Atlanta TRACON
Tue 09:58:43 PM 33.9000 -84.2833 180° South 77 89 1,700 -500 Descending Atlanta TRACON
Tue 10:00:00 PM 33.8756 -84.3020 204° Southwest  Level Estimated
Tue 10:07:00 PM 33.8756 -84.3020 26° Northeast  Level Estimated
Tue 10:08:00 PM 33.8756 -84.3020 176° South  Level Estimated

Login

Don't have an account? Register now (free) for customized features, flight alerts, and more!